This is the latest recevied weather packets stored in our database for station/object N3LF. If no packets are shown the sender has not sent any weather packets the latest 10 day(s).
| Time | Temp. | Humidity | Pressure | Rain* | Wind** | Luminosity | Snow |
|---|---|---|---|---|---|---|---|
| 1777923937 | 27.22° C | 39% | 1013 hPa | 0 mm | - | 126 W/m² | - |
| 1777923632 | 27.22° C | 41% | 1013 hPa | 0 mm | - | 446 W/m² | - |
| 1777923329 | 27.22° C | 42% | 1013.1 hPa | 0 mm | - | 647 W/m² | - |
| 1777923028 | 27.22° C | 43% | 1013.1 hPa | 0 mm | - | 618 W/m² | - |
| 1777922726 | 27.22° C | 41% | 1013.1 hPa | 0 mm | - | 673 W/m² | - |
| 1777922424 | 27.22° C | 42% | 1013.3 hPa | 0 mm | - | 609 W/m² | - |
| 1777922121 | 27.22° C | 42% | 1013.2 hPa | 0 mm | - | 712 W/m² | - |
| 1777921817 | 27.22° C | 43% | 1013.4 hPa | 0 mm | - | 710 W/m² | - |
| 1777921513 | 27.22° C | 44% | 1013.5 hPa | 0 mm | - | 714 W/m² | - |
| 1777921210 | 27.22° C | 44% | 1013.5 hPa | 0 mm | - | 685 W/m² | - |
| 1777920907 | 26.67° C | 43% | 1013.4 hPa | 0 mm | - | 708 W/m² | - |
| 1777920603 | 27.22° C | 45% | 1013.7 hPa | 0 mm | - | 714 W/m² | - |
| 1777920299 | 26.67° C | 44% | 1013.5 hPa | 0 mm | - | 742 W/m² | - |
| 1777919994 | 26.67° C | 44% | 1013.6 hPa | 0 mm | - | 747 W/m² | - |
| 1777919692 | 26.11° C | 44% | 1013.7 hPa | 0 mm | - | 754 W/m² | - |
| 1777919390 | 26.67° C | 45% | 1013.9 hPa | 0 mm | - | 468 W/m² | - |
| 1777919086 | 26.67° C | 44% | 1013.7 hPa | 0 mm | - | 747 W/m² | - |
| 1777918784 | 26.11° C | 49% | 1014 hPa | 0 mm | - | 752 W/m² | - |
| 1777918481 | 26.67° C | 45% | 1014 hPa | 0 mm | - | 743 W/m² | - |
| 1777918179 | 26.67° C | 44% | 1014 hPa | 0 mm | - | 757 W/m² | - |
| 1777917878 | 26.11° C | 46% | 1014.1 hPa | 0 mm | - | 752 W/m² | - |
| 1777917576 | 26.11° C | 46% | 1014.1 hPa | 0 mm | - | 740 W/m² | - |
| 1777917272 | 26.67° C | 46% | 1014.1 hPa | 0 mm | - | 734 W/m² | - |
| 1777916970 | 26.11° C | 46% | 1014.2 hPa | 0 mm | - | 731 W/m² | - |
| 1777916667 | 26.11° C | 46% | 1014.2 hPa | 0 mm | - | 735 W/m² | - |
* Rain latest hour (hover to see other rain measurements)
** Current wind speed in m/s (hover to see current wind gust speed)